createdAt,value
2022-11-16T00:01:29.778Z,9.73
2022-11-16T00:03:58.297Z,9.76
2022-11-16T00:06:24.738Z,9.74
2022-11-16T00:09:13.270Z,9.74
2022-11-16T00:11:39.949Z,9.67
2022-11-16T00:14:06.526Z,9.71
2022-11-16T00:16:33.903Z,9.72
2022-11-16T00:19:03.260Z,9.63
2022-11-16T00:21:30.259Z,9.70
2022-11-16T00:23:56.854Z,9.69
2022-11-16T00:26:24.015Z,9.72
2022-11-16T00:28:52.490Z,9.72
2022-11-16T00:31:19.237Z,9.68
2022-11-16T00:33:45.723Z,9.64
2022-11-16T00:36:13.447Z,9.70
2022-11-16T00:38:40.932Z,9.66
2022-11-16T00:41:07.963Z,9.68
2022-11-16T00:43:35.307Z,9.63
2022-11-16T00:46:01.805Z,9.65
2022-11-16T00:48:28.391Z,9.63
2022-11-16T00:50:54.870Z,9.66
2022-11-16T00:53:21.248Z,9.65
2022-11-16T00:55:48.351Z,9.61
2022-11-16T00:58:15.614Z,9.63
2022-11-16T01:00:42.855Z,9.62
2022-11-16T01:03:09.722Z,9.62
2022-11-16T01:09:23.088Z,9.63
2022-11-16T01:12:07.733Z,9.64
2022-11-16T01:14:37.969Z,9.65
2022-11-16T01:17:04.508Z,9.65
2022-11-16T01:19:31.029Z,9.64
2022-11-16T01:21:57.846Z,9.67
2022-11-16T01:24:25.791Z,9.68
2022-11-16T01:26:56.662Z,9.70
2022-11-16T01:29:25.414Z,9.73
2022-11-16T01:31:52.174Z,9.73
2022-11-16T01:34:18.504Z,9.73
2022-11-16T01:36:44.834Z,9.71
2022-11-16T01:39:12.847Z,9.73
2022-11-16T01:41:40.885Z,9.75
2022-11-16T01:44:33.040Z,9.75
2022-11-16T01:47:00.380Z,9.75
2022-11-16T01:49:29.691Z,9.77
2022-11-16T01:52:01.654Z,9.80
2022-11-16T01:54:29.255Z,9.79
2022-11-16T01:56:56.865Z,9.85
2022-11-16T01:59:23.262Z,9.83
2022-11-16T02:01:49.618Z,9.80
2022-11-16T02:04:15.959Z,9.85
2022-11-16T02:06:54.022Z,9.81
2022-11-16T02:09:53.617Z,9.86
2022-11-16T02:12:35.118Z,9.83
2022-11-16T02:15:20.145Z,9.83
2022-11-16T02:17:59.955Z,9.84
2022-11-16T02:20:41.238Z,9.82
2022-11-16T02:23:16.691Z,9.82
2022-11-16T02:26:01.866Z,9.80
2022-11-16T02:28:47.819Z,9.87
2022-11-16T02:31:17.257Z,9.84
2022-11-16T02:33:46.749Z,9.86
2022-11-16T02:36:22.499Z,9.88
2022-11-16T02:38:56.982Z,9.89
2022-11-16T02:41:26.373Z,9.96
2022-11-16T02:44:00.768Z,9.98
2022-11-16T02:46:30.858Z,9.98
2022-11-16T02:49:01.022Z,9.98
2022-11-16T02:51:29.325Z,9.99
2022-11-16T02:54:08.832Z,10.03
2022-11-16T02:57:04.168Z,10.00
2022-11-16T02:59:39.813Z,10.04
2022-11-16T03:02:46.791Z,10.00
2022-11-16T03:05:31.873Z,10.00
2022-11-16T03:08:07.411Z,9.94
2022-11-16T03:10:54.784Z,9.99
2022-11-16T03:13:25.511Z,9.99
2022-11-16T03:15:54.863Z,10.00
2022-11-16T03:18:23.429Z,10.07
2022-11-16T03:20:52.488Z,10.10
2022-11-16T03:23:18.946Z,10.07
2022-11-16T03:25:51.345Z,10.04
2022-11-16T03:28:33.622Z,10.12
2022-11-16T03:31:09.771Z,10.09
2022-11-16T03:33:51.874Z,10.07
2022-11-16T03:36:31.336Z,10.06
2022-11-16T03:39:05.997Z,10.10
2022-11-16T03:41:35.393Z,10.07
2022-11-16T03:44:02.221Z,10.06
2022-11-16T03:46:28.881Z,10.01
2022-11-16T03:49:00.411Z,10.03
2022-11-16T03:51:27.312Z,10.03
2022-11-16T03:53:53.739Z,10.01
2022-11-16T03:56:20.224Z,10.13
2022-11-16T03:58:46.764Z,10.06
2022-11-16T04:01:13.131Z,10.08
2022-11-16T04:03:39.459Z,10.02
2022-11-16T04:06:24.554Z,10.05
2022-11-16T04:09:09.349Z,10.06
2022-11-16T04:11:54.652Z,10.04
2022-11-16T04:14:41.865Z,10.06
2022-11-16T04:17:35.180Z,10.03
2022-11-16T04:20:20.342Z,10.12
2022-11-16T04:23:14.709Z,10.10
2022-11-16T04:25:44.182Z,10.07
2022-11-16T04:28:13.409Z,10.09
2022-11-16T04:31:04.813Z,10.02
2022-11-16T04:33:50.600Z,10.03
2022-11-16T04:36:35.766Z,9.97
2022-11-16T04:39:02.308Z,10.09
2022-11-16T04:41:48.852Z,10.03
2022-11-16T04:44:15.179Z,9.99
2022-11-16T04:47:00.560Z,10.02
2022-11-16T04:49:26.867Z,10.01
2022-11-16T04:51:53.329Z,10.04
2022-11-16T04:54:19.723Z,10.03
2022-11-16T04:56:46.073Z,10.03
2022-11-16T04:59:12.408Z,10.02
2022-11-16T05:01:57.405Z,10.01
2022-11-16T05:04:23.733Z,10.04
2022-11-16T05:06:50.209Z,10.01
2022-11-16T05:09:16.580Z,10.01
2022-11-16T05:11:42.922Z,9.97
2022-11-16T05:14:10.203Z,9.95
2022-11-16T05:16:36.835Z,9.96
2022-11-16T05:19:22.663Z,9.96
2022-11-16T05:21:49.046Z,9.93
2022-11-16T05:24:33.370Z,10.00
2022-11-16T05:27:12.733Z,9.94
2022-11-16T05:29:39.390Z,9.91
2022-11-16T05:32:07.159Z,9.86
2022-11-16T05:34:33.932Z,9.89
2022-11-16T05:37:00.263Z,9.90
2022-11-16T05:39:26.703Z,9.89
2022-11-16T05:41:53.216Z,9.85
2022-11-16T05:44:19.862Z,9.91
2022-11-16T05:46:46.852Z,9.89
2022-11-16T05:49:14.351Z,9.89
2022-11-16T05:51:43.018Z,9.91
2022-11-16T05:54:13.211Z,9.89
2022-11-16T05:56:39.882Z,9.96
2022-11-16T05:59:07.841Z,9.88
2022-11-16T06:01:35.570Z,9.92
2022-11-16T06:04:02.115Z,9.97
2022-11-16T06:06:28.862Z,9.92
2022-11-16T06:08:55.393Z,9.93
2022-11-16T06:11:22.182Z,9.86
2022-11-16T06:13:48.562Z,9.88
2022-11-16T06:16:14.935Z,9.89
2022-11-16T06:18:43.554Z,9.88
2022-11-16T06:21:11.114Z,9.88
2022-11-16T06:23:37.753Z,9.86
2022-11-16T06:26:05.104Z,9.82
2022-11-16T06:28:32.213Z,9.82
2022-11-16T06:30:58.811Z,9.74
2022-11-16T06:33:27.651Z,9.79
2022-11-16T06:35:57.166Z,9.73
2022-11-16T06:38:23.599Z,9.69
2022-11-16T06:40:54.262Z,9.68
2022-11-16T06:43:21.445Z,9.65
2022-11-16T06:45:50.254Z,9.62
2022-11-16T06:48:17.331Z,9.58
2022-11-16T06:50:43.706Z,9.59
2022-11-16T06:53:09.998Z,9.52
2022-11-16T06:55:36.451Z,9.54
2022-11-16T06:58:02.876Z,9.50
2022-11-16T07:00:29.219Z,9.47
2022-11-16T07:02:55.565Z,9.38
2022-11-16T07:05:21.985Z,9.45
2022-11-16T07:07:48.371Z,9.26
2022-11-16T07:10:14.745Z,9.39
2022-11-16T07:12:41.170Z,9.33
2022-11-16T07:15:07.993Z,9.40
2022-11-16T07:17:34.613Z,9.37
2022-11-16T07:20:18.993Z,9.39
2022-11-16T07:22:45.409Z,9.40
2022-11-16T07:25:12.134Z,9.47
2022-11-16T07:27:38.443Z,9.49
2022-11-16T07:30:06.026Z,9.53
2022-11-16T07:32:32.426Z,9.57
2022-11-16T07:34:59.640Z,9.58
2022-11-16T07:37:26.242Z,9.54
2022-11-16T07:39:52.672Z,9.61
2022-11-16T07:42:19.018Z,9.65
2022-11-16T07:44:45.341Z,9.68
2022-11-16T07:47:11.677Z,9.72
2022-11-16T07:49:38.034Z,9.69
2022-11-16T07:52:04.330Z,9.69
2022-11-16T07:54:30.708Z,9.71
2022-11-16T07:56:57.078Z,9.70
2022-11-16T07:59:23.527Z,9.78
2022-11-16T08:01:50.022Z,9.75
2022-11-16T08:04:17.441Z,9.77
2022-11-16T08:06:44.438Z,9.80
2022-11-16T08:09:10.775Z,9.78
2022-11-16T08:11:37.927Z,9.82
2022-11-16T08:14:04.318Z,9.82
2022-11-16T08:16:33.075Z,9.83
2022-11-16T08:19:00.877Z,9.89
2022-11-16T08:21:27.346Z,9.87
2022-11-16T08:23:58.372Z,9.94
2022-11-16T08:26:25.140Z,9.91
2022-11-16T08:28:53.542Z,9.93
2022-11-16T08:31:22.332Z,9.96
2022-11-16T08:33:48.662Z,10.00
2022-11-16T08:36:18.367Z,9.99
2022-11-16T08:38:46.311Z,10.01
2022-11-16T08:41:13.013Z,9.95
2022-11-16T08:43:40.356Z,10.01
2022-11-16T08:46:08.033Z,9.89
2022-11-16T08:48:35.521Z,9.87
2022-11-16T08:51:17.447Z,9.82
2022-11-16T08:53:44.886Z,9.83
2022-11-16T08:56:13.163Z,9.79
2022-11-16T08:58:43.357Z,9.79
2022-11-16T09:01:15.512Z,9.82
2022-11-16T09:03:42.209Z,9.83
2022-11-16T09:06:09.735Z,9.85
2022-11-16T09:08:38.450Z,9.88
2022-11-16T09:11:06.914Z,9.88
2022-11-16T09:13:33.303Z,9.87
2022-11-16T09:16:00.815Z,9.85
2022-11-16T09:18:27.858Z,9.86
2022-11-16T09:20:54.617Z,9.89
2022-11-16T09:23:25.261Z,9.89
2022-11-16T09:25:52.834Z,9.92
2022-11-16T09:28:20.482Z,9.96
2022-11-16T09:30:49.752Z,9.98
2022-11-16T09:33:16.387Z,10.04
2022-11-16T09:35:42.958Z,10.09
2022-11-16T09:38:09.934Z,10.09
2022-11-16T09:40:38.794Z,10.16
2022-11-16T09:43:05.119Z,10.24
2022-11-16T09:45:55.359Z,10.33
2022-11-16T09:48:23.702Z,10.36
2022-11-16T09:50:54.253Z,10.46
2022-11-16T09:53:25.705Z,10.52
2022-11-16T09:55:54.599Z,10.57
2022-11-16T09:58:27.698Z,10.65
2022-11-16T10:01:04.517Z,10.70
2022-11-16T10:03:38.102Z,10.79
2022-11-16T10:06:16.666Z,10.91
2022-11-16T10:08:51.384Z,10.93
2022-11-16T10:11:29.026Z,10.97
2022-11-16T10:14:10.388Z,11.06
2022-11-16T10:16:53.202Z,11.18
2022-11-16T10:19:34.171Z,11.24
2022-11-16T10:22:19.181Z,11.34
2022-11-16T10:24:58.737Z,11.41
2022-11-16T10:27:46.987Z,11.36
2022-11-16T10:30:21.325Z,11.30
2022-11-16T10:32:54.955Z,11.24
2022-11-16T10:35:29.663Z,11.24
2022-11-16T10:37:59.367Z,11.22
2022-11-16T10:40:36.055Z,11.24
2022-11-16T10:43:15.782Z,11.22
2022-11-16T10:46:05.277Z,11.22
2022-11-16T10:48:54.346Z,11.16
2022-11-16T10:51:20.756Z,11.22
2022-11-16T10:53:47.291Z,11.26
2022-11-16T10:56:20.886Z,11.42
2022-11-16T10:59:02.185Z,11.52
2022-11-16T11:01:31.750Z,11.69
2022-11-16T11:04:13.040Z,12.54
2022-11-16T11:06:40.113Z,13.16
2022-11-16T11:09:31.331Z,13.83
2022-11-16T11:12:16.187Z,14.63
2022-11-16T11:14:42.516Z,13.83
2022-11-16T11:17:12.198Z,13.17
2022-11-16T11:19:38.628Z,13.01
2022-11-16T11:22:04.973Z,12.87
2022-11-16T11:24:46.969Z,12.60
2022-11-16T11:27:14.130Z,12.36
2022-11-16T11:29:42.957Z,12.23
2022-11-16T11:32:23.926Z,12.11
2022-11-16T11:34:53.832Z,12.01
2022-11-16T11:37:25.018Z,12.01
2022-11-16T11:40:07.549Z,11.91
2022-11-16T11:42:33.908Z,11.88
2022-11-16T11:45:06.308Z,11.88
2022-11-16T11:48:01.646Z,11.89
2022-11-16T11:50:42.566Z,11.87
2022-11-16T11:53:21.045Z,11.83
2022-11-16T11:55:57.379Z,11.80
2022-11-16T11:58:30.087Z,11.89
2022-11-16T12:01:25.715Z,12.01
2022-11-16T12:04:31.270Z,12.35
2022-11-16T12:07:24.099Z,13.38
2022-11-16T12:10:05.090Z,13.92
2022-11-16T12:12:43.602Z,13.71
2022-11-16T12:15:31.790Z,13.07
2022-11-16T12:18:37.802Z,13.04
2022-11-16T12:21:09.932Z,12.80
2022-11-16T12:23:47.948Z,12.71
2022-11-16T12:26:26.828Z,12.66
2022-11-16T12:29:08.294Z,12.61
2022-11-16T12:31:52.862Z,12.92
2022-11-16T12:34:37.463Z,13.22
2022-11-16T12:37:14.613Z,13.52
2022-11-16T12:39:53.081Z,13.31
2022-11-16T12:42:22.234Z,13.40
2022-11-16T12:45:16.496Z,13.35
2022-11-16T12:48:01.360Z,13.04
2022-11-16T12:50:57.039Z,12.93
2022-11-16T12:54:14.776Z,12.82
2022-11-16T12:56:59.626Z,12.64
2022-11-16T12:59:53.376Z,12.58
2022-11-16T13:02:35.446Z,12.50
2022-11-16T13:05:13.144Z,12.39
2022-11-16T13:07:46.525Z,12.32
2022-11-16T13:10:36.847Z,12.36
2022-11-16T13:13:35.331Z,12.43
2022-11-16T13:16:02.001Z,12.54
2022-11-16T13:18:29.772Z,12.68
2022-11-16T13:21:04.931Z,12.63
2022-11-16T13:23:31.503Z,12.59
2022-11-16T13:26:04.668Z,12.57
2022-11-16T13:28:51.019Z,12.55
2022-11-16T13:31:48.114Z,12.49
2022-11-16T13:34:22.771Z,12.50
2022-11-16T13:36:49.156Z,12.57
2022-11-16T13:39:22.737Z,12.67
2022-11-16T13:42:05.369Z,12.69
2022-11-16T13:44:32.651Z,12.74
2022-11-16T13:47:04.508Z,12.70
2022-11-16T13:49:37.885Z,12.74
2022-11-16T13:52:22.548Z,12.71
2022-11-16T13:54:53.027Z,12.56
2022-11-16T13:57:24.430Z,12.51
2022-11-16T14:00:00.721Z,12.43
2022-11-16T14:02:31.789Z,12.32
2022-11-16T14:05:14.072Z,12.27
2022-11-16T14:07:44.732Z,12.19
2022-11-16T14:10:13.315Z,12.19
2022-11-16T14:12:53.713Z,12.13
2022-11-16T14:15:21.835Z,12.08
2022-11-16T14:18:03.132Z,12.00
2022-11-16T14:20:53.774Z,11.91
2022-11-16T14:23:26.219Z,11.79
2022-11-16T14:26:07.652Z,11.82
2022-11-16T14:28:48.802Z,11.83
2022-11-16T14:31:22.931Z,11.83
2022-11-16T14:33:53.031Z,11.76
2022-11-16T14:36:36.251Z,11.78
2022-11-16T14:39:24.486Z,11.81
2022-11-16T14:41:51.449Z,11.71
2022-11-16T14:44:21.838Z,11.67
2022-11-16T14:46:48.497Z,11.67
2022-11-16T14:49:17.022Z,11.67
2022-11-16T14:51:50.904Z,11.67
2022-11-16T14:54:42.075Z,11.66
2022-11-16T14:57:18.104Z,11.66
2022-11-16T14:59:44.416Z,11.65
2022-11-16T15:02:24.080Z,11.63
2022-11-16T15:04:52.573Z,11.63
2022-11-16T15:07:23.747Z,11.56
2022-11-16T15:09:54.060Z,11.54
2022-11-16T15:12:42.423Z,11.46
2022-11-16T15:15:14.780Z,11.48
2022-11-16T15:17:44.471Z,11.45
2022-11-16T15:20:19.558Z,11.41
2022-11-16T15:22:48.554Z,11.38
2022-11-16T15:25:36.468Z,11.26
2022-11-16T15:28:05.651Z,11.22
2022-11-16T15:30:36.847Z,11.16
2022-11-16T15:33:10.376Z,11.13
2022-11-16T15:35:37.745Z,11.02
2022-11-16T15:38:05.234Z,11.00
2022-11-16T15:40:33.953Z,10.93
2022-11-16T15:43:02.483Z,10.88
2022-11-16T15:45:30.953Z,10.89
2022-11-16T15:48:00.432Z,10.84
2022-11-16T15:50:27.313Z,10.79
2022-11-16T15:52:55.306Z,10.70
2022-11-16T15:55:31.594Z,10.68
2022-11-16T15:58:00.970Z,10.68
2022-11-16T16:00:28.801Z,10.65
2022-11-16T16:03:05.807Z,10.60
2022-11-16T16:05:41.699Z,10.58
2022-11-16T16:08:25.490Z,10.59
2022-11-16T16:11:14.740Z,10.59
2022-11-16T16:13:56.129Z,10.55
2022-11-16T16:16:37.389Z,10.52
2022-11-16T16:19:23.434Z,10.48
2022-11-16T16:21:50.238Z,10.42
2022-11-16T16:24:41.103Z,10.38
2022-11-16T16:27:12.891Z,10.43
2022-11-16T16:29:39.826Z,10.38
2022-11-16T16:32:08.842Z,10.36
2022-11-16T16:34:37.919Z,10.37
2022-11-16T16:37:10.543Z,10.35
2022-11-16T16:39:38.587Z,10.37
2022-11-16T16:42:08.851Z,10.35
2022-11-16T16:44:35.169Z,10.33
2022-11-16T16:47:01.544Z,10.30
2022-11-16T16:49:27.862Z,10.29
2022-11-16T16:51:54.259Z,10.23
2022-11-16T16:54:20.627Z,10.27
2022-11-16T16:56:46.931Z,10.25
2022-11-16T16:59:14.149Z,10.26
2022-11-16T17:01:40.944Z,10.24
2022-11-16T17:04:07.355Z,10.18
2022-11-16T17:06:34.269Z,10.12
2022-11-16T17:09:00.643Z,10.14
2022-11-16T17:11:27.017Z,10.09
2022-11-16T17:13:53.538Z,10.03
2022-11-16T17:16:19.921Z,10.03
2022-11-16T17:18:47.765Z,10.04
2022-11-16T17:21:14.607Z,9.99
2022-11-16T17:23:41.013Z,9.99
2022-11-16T17:26:09.484Z,9.96
2022-11-16T17:28:35.853Z,9.92
2022-11-16T17:31:06.871Z,9.84
2022-11-16T17:33:38.251Z,9.75
2022-11-16T17:36:06.199Z,9.65
2022-11-16T17:38:36.431Z,9.52
2022-11-16T17:41:05.341Z,9.56
2022-11-16T17:43:31.907Z,9.48
2022-11-16T17:46:19.402Z,9.43
2022-11-16T17:48:47.444Z,9.35
2022-11-16T17:51:16.084Z,9.32
2022-11-16T17:53:45.343Z,9.25
2022-11-16T17:56:13.829Z,9.24
2022-11-16T17:58:40.305Z,9.24
2022-11-16T18:01:06.721Z,9.21
2022-11-16T18:03:36.570Z,9.26
2022-11-16T18:06:08.514Z,9.26
2022-11-16T18:08:35.860Z,9.23
2022-11-16T18:11:10.642Z,9.25
2022-11-16T18:13:37.647Z,9.27
2022-11-16T18:16:11.262Z,9.29
2022-11-16T18:18:38.350Z,9.27
2022-11-16T18:21:05.440Z,9.28
2022-11-16T18:23:33.874Z,9.24
2022-11-16T18:26:00.839Z,9.24
2022-11-16T18:28:27.176Z,9.18
2022-11-16T18:31:02.177Z,9.13
2022-11-16T18:33:30.529Z,9.23
2022-11-16T18:35:57.059Z,9.23
2022-11-16T18:38:23.398Z,9.21
2022-11-16T18:41:21.862Z,9.23
2022-11-16T18:43:55.144Z,9.22
2022-11-16T18:46:25.424Z,9.16
2022-11-16T18:48:52.246Z,9.20
2022-11-16T18:51:19.946Z,9.19
2022-11-16T18:53:46.494Z,9.15
2022-11-16T18:56:13.551Z,9.17
2022-11-16T18:58:55.659Z,9.16
2022-11-16T19:01:24.557Z,9.16
2022-11-16T19:03:52.731Z,9.11
2022-11-16T19:06:19.629Z,9.10
2022-11-16T19:08:51.780Z,9.13
2022-11-16T19:11:21.661Z,9.12
2022-11-16T19:13:52.720Z,9.13
2022-11-16T19:16:19.034Z,9.17
2022-11-16T19:18:45.355Z,9.16
2022-11-16T19:21:13.751Z,9.21
2022-11-16T19:23:51.244Z,9.18
2022-11-16T19:26:19.563Z,9.16
2022-11-16T19:28:47.765Z,9.09
2022-11-16T19:31:16.151Z,9.10
2022-11-16T19:33:44.311Z,9.08
2022-11-16T19:36:17.129Z,9.05
2022-11-16T19:38:45.372Z,9.06
2022-11-16T19:41:13.021Z,9.05
2022-11-16T19:43:39.863Z,9.05
2022-11-16T19:46:12.273Z,8.94
2022-11-16T19:48:39.080Z,8.89
2022-11-16T19:51:06.462Z,8.86
2022-11-16T19:53:33.322Z,8.79
2022-11-16T19:55:59.919Z,8.76
2022-11-16T19:58:26.343Z,8.77
2022-11-16T20:00:52.759Z,8.78
2022-11-16T20:03:19.130Z,8.76
2022-11-16T20:05:45.462Z,8.76
2022-11-16T20:08:11.769Z,8.76
2022-11-16T20:10:38.104Z,8.79
2022-11-16T20:13:05.115Z,8.77
2022-11-16T20:15:31.934Z,8.78
2022-11-16T20:17:58.941Z,8.77
2022-11-16T20:20:25.835Z,8.71
2022-11-16T20:22:53.738Z,8.72
2022-11-16T20:25:20.164Z,8.72
2022-11-16T20:27:46.955Z,8.76
2022-11-16T20:30:16.565Z,8.75
2022-11-16T20:32:42.979Z,8.71
2022-11-16T20:35:09.318Z,8.71
2022-11-16T20:37:36.578Z,8.72
2022-11-16T20:40:03.103Z,8.71
2022-11-16T20:42:29.407Z,8.75
2022-11-16T20:44:55.830Z,8.80
2022-11-16T20:47:22.126Z,8.79
2022-11-16T20:49:48.473Z,8.79
2022-11-16T20:52:14.883Z,8.82
2022-11-16T20:54:41.207Z,8.80
2022-11-16T20:57:07.513Z,8.76
2022-11-16T20:59:33.851Z,8.75
2022-11-16T21:02:00.239Z,8.74
2022-11-16T21:04:27.137Z,8.66
2022-11-16T21:06:53.478Z,8.62
2022-11-16T21:09:22.724Z,8.61
2022-11-16T21:12:08.108Z,8.63
2022-11-16T21:14:34.516Z,8.61
2022-11-16T21:17:00.902Z,8.61
2022-11-16T21:19:27.261Z,8.63
2022-11-16T21:21:53.549Z,8.65
2022-11-16T21:24:19.962Z,8.61
2022-11-16T21:26:46.264Z,8.58
2022-11-16T21:29:12.692Z,8.48
2022-11-16T21:31:39.259Z,8.46
2022-11-16T21:34:07.152Z,8.46
2022-11-16T21:36:33.763Z,8.47
2022-11-16T21:39:00.796Z,8.44
2022-11-16T21:41:28.051Z,8.38
2022-11-16T21:43:55.063Z,8.43
2022-11-16T21:46:26.287Z,8.44
2022-11-16T21:48:55.290Z,8.43
2022-11-16T21:51:25.028Z,8.42
2022-11-16T21:53:51.661Z,8.43
2022-11-16T21:56:21.677Z,8.44
2022-11-16T21:58:49.785Z,8.44
2022-11-16T22:01:16.488Z,8.47
2022-11-16T22:03:43.140Z,8.46
2022-11-16T22:06:31.747Z,8.44
2022-11-16T22:08:58.807Z,8.42
2022-11-16T22:11:25.366Z,8.45
2022-11-16T22:13:51.749Z,8.44
2022-11-16T22:16:19.660Z,8.48
2022-11-16T22:18:46.403Z,8.50
2022-11-16T22:21:13.165Z,8.48
2022-11-16T22:23:39.928Z,8.51
2022-11-16T22:26:09.110Z,8.52
2022-11-16T22:28:36.489Z,8.42
2022-11-16T22:31:08.253Z,8.46
2022-11-16T22:33:35.532Z,8.48
2022-11-16T22:36:02.526Z,8.46
2022-11-16T22:38:28.994Z,8.46
2022-11-16T22:40:56.644Z,8.48
2022-11-16T22:43:28.128Z,8.50
2022-11-16T22:46:02.737Z,8.51
2022-11-16T22:48:33.901Z,8.52
2022-11-16T22:51:23.168Z,8.54
2022-11-16T22:54:00.720Z,8.51
2022-11-16T22:56:28.697Z,8.41
2022-11-16T22:58:55.607Z,8.51
2022-11-16T23:01:22.003Z,8.53
2022-11-16T23:03:48.756Z,8.52
2022-11-16T23:06:15.451Z,8.53
2022-11-16T23:08:42.150Z,8.56
2022-11-16T23:11:31.170Z,8.54
2022-11-16T23:14:17.078Z,8.53
2022-11-16T23:16:43.777Z,8.49
2022-11-16T23:19:31.750Z,8.45
2022-11-16T23:22:17.001Z,8.50
2022-11-16T23:25:02.633Z,8.51
2022-11-16T23:27:50.644Z,8.47
2022-11-16T23:30:17.787Z,8.50
2022-11-16T23:32:44.131Z,8.46
2022-11-16T23:35:11.012Z,8.51
2022-11-16T23:37:57.232Z,8.51
2022-11-16T23:40:26.551Z,8.50
2022-11-16T23:43:12.798Z,8.46
2022-11-16T23:45:40.424Z,8.44
2022-11-16T23:48:08.827Z,8.45
2022-11-16T23:50:35.310Z,8.48
2022-11-16T23:53:02.039Z,8.48
2022-11-16T23:55:28.786Z,8.49
2022-11-16T23:57:55.187Z,8.45
